createdAt,value
2023-02-06T00:01:47.440Z,8.32
2023-02-06T00:04:15.766Z,8.49
2023-02-06T00:06:44.083Z,8.31
2023-02-06T00:12:01.990Z,8.18
2023-02-06T00:14:30.111Z,8.46
2023-02-06T00:17:01.608Z,8.38
2023-02-06T00:19:29.364Z,8.45
2023-02-06T00:21:57.148Z,8.47
2023-02-06T00:24:25.301Z,8.23
2023-02-06T00:26:53.102Z,8.08
2023-02-06T00:29:20.823Z,8.37
2023-02-06T00:31:49.362Z,8.26
2023-02-06T00:34:18.651Z,8.48
2023-02-06T00:36:46.405Z,8.40
2023-02-06T00:39:14.735Z,8.46
2023-02-06T00:41:42.450Z,8.52
2023-02-06T00:44:10.310Z,8.54
2023-02-06T00:46:38.624Z,8.47
2023-02-06T00:49:06.380Z,8.56
2023-02-06T00:51:39.303Z,8.50
2023-02-06T00:54:07.734Z,8.48
2023-02-06T00:56:36.287Z,8.42
2023-02-06T00:59:04.727Z,8.49
2023-02-06T01:01:32.496Z,8.61
2023-02-06T01:04:00.223Z,8.28
2023-02-06T01:06:28.591Z,8.54
2023-02-06T01:08:57.709Z,8.56
2023-02-06T01:11:27.531Z,8.63
2023-02-06T01:13:56.066Z,8.44
2023-02-06T01:16:25.642Z,8.60
2023-02-06T01:18:53.442Z,8.59
2023-02-06T01:21:23.947Z,8.44
2023-02-06T01:23:53.679Z,8.34
2023-02-06T01:26:24.698Z,8.69
2023-02-06T01:28:52.485Z,8.49
2023-02-06T01:31:22.745Z,8.57
2023-02-06T01:33:52.141Z,8.37
2023-02-06T01:36:20.982Z,8.58
2023-02-06T01:38:49.930Z,8.55
2023-02-06T01:41:20.016Z,8.43
2023-02-06T01:44:15.604Z,8.45
2023-02-06T01:46:46.465Z,8.49
2023-02-06T01:49:18.304Z,8.23
2023-02-06T01:51:47.706Z,8.41
2023-02-06T01:54:16.713Z,8.17
2023-02-06T01:56:49.627Z,8.32
2023-02-06T01:59:19.136Z,8.30
2023-02-06T02:01:47.311Z,8.25
2023-02-06T02:04:20.836Z,8.26
2023-02-06T02:06:58.738Z,8.27
2023-02-06T02:09:28.005Z,8.25
2023-02-06T02:11:55.809Z,8.31
2023-02-06T02:14:25.536Z,8.32
2023-02-06T02:17:00.871Z,8.36
2023-02-06T02:22:52.171Z,8.23
2023-02-06T02:43:29.764Z,8.16
2023-02-06T03:00:36.918Z,7.99
2023-02-06T03:03:08.704Z,8.07
2023-02-06T03:06:03.895Z,8.08
2023-02-06T03:08:44.818Z,8.00
2023-02-06T03:14:07.486Z,8.09
2023-02-06T03:16:48.836Z,8.16
2023-02-06T03:19:22.001Z,8.14
2023-02-06T03:21:50.978Z,8.22
2023-02-06T03:24:25.160Z,8.14
2023-02-06T03:26:57.992Z,8.03
2023-02-06T03:29:30.006Z,8.28
2023-02-06T03:32:03.587Z,8.35
2023-02-06T03:34:38.634Z,8.33
2023-02-06T03:37:06.787Z,8.34
2023-02-06T03:39:35.065Z,8.40
2023-02-06T03:42:06.044Z,8.30
2023-02-06T03:44:37.509Z,8.29
2023-02-06T07:42:15.512Z,7.89
2023-02-06T07:47:47.017Z,7.55
2023-02-06T08:06:46.154Z,7.40
2023-02-06T08:32:02.117Z,7.15
2023-02-06T08:38:08.730Z,6.47
2023-02-06T08:41:17.158Z,6.84
2023-02-06T08:47:38.836Z,6.70
2023-02-06T10:01:44.109Z,7.66
2023-02-06T10:04:43.624Z,7.84
2023-02-06T10:19:46.690Z,8.09
2023-02-06T10:22:22.454Z,8.07
2023-02-06T10:25:06.256Z,7.88
2023-02-06T10:27:35.902Z,7.93
2023-02-06T10:30:03.670Z,8.32
2023-02-06T10:32:46.538Z,8.04
2023-02-06T10:35:25.928Z,8.41
2023-02-06T10:38:34.336Z,8.27
2023-02-06T10:43:48.605Z,8.52
2023-02-06T10:46:36.786Z,8.59
2023-02-06T10:49:12.544Z,8.67
2023-02-06T10:51:44.744Z,8.56
2023-02-06T10:54:17.958Z,8.70
2023-02-06T10:56:48.803Z,8.56
2023-02-06T10:59:25.078Z,8.91
2023-02-06T11:01:58.159Z,8.72
2023-02-06T11:04:34.388Z,8.79
2023-02-06T11:07:09.441Z,9.05
2023-02-06T11:09:37.977Z,9.10
2023-02-06T11:12:12.956Z,8.94
2023-02-06T11:14:42.056Z,9.12
2023-02-06T11:17:11.476Z,9.00
2023-02-06T11:19:44.758Z,9.21
2023-02-06T11:22:16.198Z,9.25
2023-02-06T11:25:03.188Z,9.22
2023-02-06T11:27:33.331Z,9.36
2023-02-06T11:30:07.462Z,9.46
2023-02-06T11:32:40.650Z,9.55
2023-02-06T11:35:23.125Z,9.55
2023-02-06T11:37:54.081Z,9.46
2023-02-06T11:40:28.291Z,9.57
2023-02-06T11:43:18.558Z,9.52
2023-02-06T11:45:48.584Z,9.50
2023-02-06T11:48:37.248Z,9.63
2023-02-06T11:51:05.916Z,9.63
2023-02-06T11:53:36.003Z,9.74
2023-02-06T11:56:08.068Z,9.80
2023-02-06T11:58:36.032Z,9.78
2023-02-06T12:01:06.999Z,9.77
2023-02-06T12:03:38.534Z,9.52
2023-02-06T12:06:13.168Z,9.36
2023-02-06T12:08:47.920Z,9.46
2023-02-06T12:11:22.478Z,9.64
2023-02-06T12:13:59.315Z,9.80
2023-02-06T12:16:31.496Z,9.75
2023-02-06T12:19:04.295Z,9.79
2023-02-06T12:21:44.520Z,9.93
2023-02-06T12:24:28.076Z,9.96
2023-02-06T12:26:59.795Z,10.07
2023-02-06T12:29:37.186Z,10.15
2023-02-06T12:32:19.743Z,10.21
2023-02-06T12:34:55.535Z,10.23
2023-02-06T12:37:35.930Z,10.05
2023-02-06T12:40:08.940Z,10.00
2023-02-06T12:42:43.447Z,9.73
2023-02-06T12:45:32.696Z,9.90
2023-02-06T12:48:11.932Z,9.81
2023-02-06T12:50:46.706Z,9.74
2023-02-06T12:53:19.948Z,9.86
2023-02-06T12:56:00.506Z,10.00
2023-02-06T12:58:43.855Z,10.10
2023-02-06T13:01:34.350Z,10.01
2023-02-06T13:04:14.735Z,10.35
2023-02-06T13:06:57.365Z,10.47
2023-02-06T13:09:34.361Z,10.46
2023-02-06T13:12:18.806Z,10.70
2023-02-06T13:14:49.140Z,10.41
2023-02-06T13:17:26.127Z,10.42
2023-02-06T13:20:03.414Z,10.08
2023-02-06T13:22:48.724Z,9.97
2023-02-06T13:26:03.982Z,10.20
2023-02-06T13:29:02.555Z,10.04
2023-02-06T13:31:35.698Z,10.04
2023-02-06T13:34:19.474Z,10.23
2023-02-06T13:36:52.526Z,10.24
2023-02-06T13:39:39.429Z,10.01
2023-02-06T13:42:34.088Z,9.96
2023-02-06T13:45:06.543Z,10.06
2023-02-06T13:48:00.703Z,10.00
2023-02-06T13:50:41.232Z,9.97
2023-02-06T13:53:29.114Z,9.87
2023-02-06T13:56:10.103Z,9.53
2023-02-06T13:58:41.974Z,9.54
2023-02-06T14:01:22.851Z,9.59
2023-02-06T14:03:52.267Z,9.59
2023-02-06T14:06:45.364Z,9.59
2023-02-06T14:09:34.198Z,9.60
2023-02-06T14:12:29.140Z,9.60
2023-02-06T14:15:12.102Z,9.59
2023-02-06T14:17:57.157Z,9.62
2023-02-06T14:20:34.553Z,9.57
2023-02-06T14:23:13.329Z,9.68
2023-02-06T14:25:49.718Z,9.40
2023-02-06T14:28:27.322Z,9.44
2023-02-06T14:31:05.895Z,9.66
2023-02-06T14:33:55.190Z,9.73
2023-02-06T14:36:44.765Z,9.88
2023-02-06T14:39:40.364Z,9.92
2023-02-06T14:42:13.050Z,10.02
2023-02-06T14:44:42.871Z,9.89
2023-02-06T14:47:19.172Z,9.97
2023-02-06T14:49:50.649Z,10.08
2023-02-06T14:52:21.998Z,10.06
2023-02-06T14:54:50.139Z,10.03
2023-02-06T14:57:23.934Z,10.04
2023-02-06T14:59:54.514Z,9.87
2023-02-06T15:02:34.625Z,10.02
2023-02-06T15:05:05.873Z,10.14
2023-02-06T15:07:35.185Z,10.02
2023-02-06T15:10:09.238Z,10.21
2023-02-06T15:12:37.939Z,10.09
2023-02-06T15:15:17.599Z,10.16
2023-02-06T15:17:56.204Z,10.03
2023-02-06T15:20:31.132Z,10.19
2023-02-06T15:23:16.676Z,10.03
2023-02-06T15:25:59.920Z,10.20
2023-02-06T15:28:30.514Z,10.19
2023-02-06T15:31:01.152Z,10.28
2023-02-06T15:33:33.572Z,10.12
2023-02-06T15:36:04.675Z,10.37
2023-02-06T15:38:34.529Z,10.41
2023-02-06T15:41:06.311Z,10.21
2023-02-06T15:43:35.221Z,10.15
2023-02-06T15:46:05.603Z,10.40
2023-02-06T15:48:37.427Z,10.44
2023-02-06T15:51:19.739Z,10.41
2023-02-06T15:56:41.319Z,10.42
2023-02-06T15:59:16.234Z,10.43
2023-02-06T16:01:44.791Z,10.44
2023-02-06T16:04:18.412Z,10.48
2023-02-06T16:06:48.864Z,10.49
2023-02-06T16:09:22.169Z,10.34
2023-02-06T16:11:53.270Z,10.42
2023-02-06T16:14:25.259Z,10.24
2023-02-06T16:17:02.156Z,10.47
2023-02-06T16:19:42.687Z,10.48
2023-02-06T16:22:23.393Z,10.46
2023-02-06T16:24:53.577Z,10.09
2023-02-06T16:27:24.258Z,10.46
2023-02-06T16:29:54.242Z,10.12
2023-02-06T16:35:15.257Z,10.40
2023-02-06T16:37:45.005Z,10.40
2023-02-06T16:40:12.946Z,10.38
2023-02-06T16:42:44.195Z,10.31
2023-02-06T16:45:21.180Z,10.29
2023-02-06T16:47:49.228Z,10.34
2023-02-06T16:50:17.599Z,10.33
2023-02-06T16:52:51.515Z,10.32
2023-02-06T16:55:23.434Z,10.25
2023-02-06T16:57:54.577Z,10.14
2023-02-06T17:00:25.096Z,10.21
2023-02-06T17:02:53.546Z,10.13
2023-02-06T17:05:22.686Z,10.14
2023-02-06T17:07:51.906Z,10.13
2023-02-06T17:10:23.064Z,10.10
2023-02-06T17:12:51.509Z,10.07
2023-02-06T17:15:20.144Z,9.91
2023-02-06T17:17:48.826Z,9.85
2023-02-06T17:20:25.886Z,9.90
2023-02-06T17:22:55.495Z,9.57
2023-02-06T17:25:23.400Z,9.77
2023-02-06T17:27:51.216Z,9.65
2023-02-06T17:30:21.718Z,9.86
2023-02-06T17:32:50.080Z,9.76
2023-02-06T17:35:18.240Z,9.56
2023-02-06T17:37:46.073Z,9.78
2023-02-06T17:40:19.941Z,9.67
2023-02-06T17:42:51.395Z,9.59
2023-02-06T17:45:19.484Z,9.52
2023-02-06T17:47:47.381Z,9.66
2023-02-06T17:50:17.962Z,9.72
2023-02-06T17:52:45.921Z,9.67
2023-02-06T17:55:16.007Z,9.57
2023-02-06T17:57:44.377Z,9.58
2023-02-06T18:00:15.636Z,9.67
2023-02-06T18:02:44.709Z,9.52
2023-02-06T18:05:12.681Z,9.60
2023-02-06T18:07:41.338Z,9.61
2023-02-06T18:10:11.152Z,9.59
2023-02-06T18:12:40.281Z,9.64
2023-02-06T18:15:08.811Z,9.60
2023-02-06T18:17:36.659Z,9.42
2023-02-06T18:20:05.839Z,9.28
2023-02-06T18:22:40.952Z,9.52
2023-02-06T18:25:09.736Z,9.41
2023-02-06T18:27:38.062Z,9.33
2023-02-06T18:30:09.125Z,9.40
2023-02-06T18:32:38.313Z,9.45
2023-02-06T18:35:07.385Z,9.31
2023-02-06T18:37:36.428Z,9.29
2023-02-06T18:40:04.577Z,9.14
2023-02-06T18:42:50.668Z,9.27
2023-02-06T18:45:19.944Z,9.27
2023-02-06T18:47:48.383Z,9.16
2023-02-06T18:50:17.051Z,9.15
2023-02-06T18:52:44.790Z,9.15
2023-02-06T18:55:12.599Z,8.86
2023-02-06T18:57:40.889Z,9.02
2023-02-06T19:00:10.866Z,9.12
2023-02-06T19:02:40.142Z,9.08
2023-02-06T19:05:08.433Z,8.78
2023-02-06T19:07:36.369Z,8.84
2023-02-06T19:10:10.088Z,8.93
2023-02-06T19:12:39.346Z,8.92
2023-02-06T19:15:07.904Z,8.73
2023-02-06T19:17:39.092Z,8.92
2023-02-06T19:20:10.134Z,8.83
2023-02-06T19:22:39.326Z,8.82
2023-02-06T19:25:12.078Z,8.86
2023-02-06T19:27:41.229Z,8.81
2023-02-06T19:30:10.245Z,8.61
2023-02-06T19:32:38.025Z,8.69
2023-02-06T19:35:06.905Z,8.59
2023-02-06T19:37:36.041Z,8.62
2023-02-06T19:40:03.795Z,8.43
2023-02-06T19:42:32.038Z,8.55
2023-02-06T19:44:59.862Z,8.59
2023-02-06T19:47:27.610Z,8.39
2023-02-06T19:49:56.008Z,8.14
2023-02-06T19:52:24.012Z,8.22
2023-02-06T19:54:53.357Z,8.45
2023-02-06T19:57:21.604Z,8.27
2023-02-06T19:59:49.355Z,8.32
2023-02-06T20:02:17.885Z,8.26
2023-02-06T20:04:46.365Z,8.05
2023-02-06T20:07:14.468Z,8.14
2023-02-06T20:15:47.463Z,7.89
2023-02-06T20:21:56.082Z,7.88
